Time;durP1;ratioP1;P1;durP2;ratioP2;P2;SDS_P1;SDS_P2;PMS_P1;PMS_P2;Temp;Humidity;BMP_temperature;BMP_pressure;BME280_temperature;BME280_humidity;BME280_pressure;Samples;Min_cycle;Max_cycle;Signal;HPM_P1;HPM_P2
2021/09/28 00:01:17;;;;;;;2.50;1.07;;;14.90;99.90;;;;;;5073604;28;20985;-66
2021/09/28 00:03:43;;;;;;;2.60;1.07;;;14.80;99.90;;;;;;5073026;28;20673;-66
2021/09/28 00:06:09;;;;;;;1.53;1.10;;;14.80;99.90;;;;;;5073449;28;20594;-66
2021/09/28 00:08:37;;;;;;;5.47;1.10;;;14.70;99.90;;;;;;5073543;28;21133;-66
2021/09/28 00:11:04;;;;;;;9.87;1.80;;;14.70;99.90;;;;;;5072822;28;20589;-67
2021/09/28 00:13:30;;;;;;;2.03;1.07;;;14.70;99.90;;;;;;5073591;28;20625;-66
2021/09/28 00:15:57;;;;;;;4.43;1.23;;;14.80;99.90;;;;;;5073698;28;20610;-67
2021/09/28 00:18:24;;;;;;;3.20;1.17;;;14.70;99.90;;;;;;5073383;28;21016;-67
2021/09/28 00:20:50;;;;;;;2.33;1.00;;;14.60;99.90;;;;;;5073534;28;20629;-67
2021/09/28 00:23:17;;;;;;;4.70;1.50;;;14.50;99.90;;;;;;5073316;28;20751;-67
2021/09/28 00:25:44;;;;;;;3.43;1.67;;;14.50;99.90;;;;;;5073190;28;20610;-67
2021/09/28 00:28:11;;;;;;;3.30;1.37;;;14.40;99.90;;;;;;5073460;28;20618;-66
2021/09/28 00:30:37;;;;;;;5.73;1.80;;;14.40;99.90;;;;;;5073071;28;20618;-67
2021/09/28 00:33:03;;;;;;;1.93;1.40;;;14.40;99.90;;;;;;5073014;28;20637;-67
2021/09/28 00:35:30;;;;;;;4.53;1.70;;;14.30;99.90;;;;;;5077395;28;20614;-67
2021/09/28 00:37:56;;;;;;;1.63;1.10;;;14.20;99.90;;;;;;5077177;28;20622;-67
2021/09/28 00:40:23;;;;;;;2.00;1.20;;;14.10;99.90;;;;;;5076909;28;20611;-66
2021/09/28 00:42:49;;;;;;;4.73;1.63;;;14.10;99.90;;;;;;5076958;28;20630;-66
2021/09/28 00:45:16;;;;;;;2.10;1.20;;;14.10;99.90;;;;;;5077020;28;20598;-66
2021/09/28 00:47:42;;;;;;;4.43;1.80;;;14.00;99.90;;;;;;5076615;28;20593;-66
2021/09/28 00:50:09;;;;;;;3.00;1.47;;;14.00;99.90;;;;;;5077088;28;20211;-67
2021/09/28 00:52:36;;;;;;;4.87;1.37;;;13.90;99.90;;;;;;5077240;28;20613;-67
2021/09/28 00:55:04;;;;;;;2.70;1.80;;;13.90;99.90;;;;;;5076324;28;21157;-67
2021/09/28 00:57:30;;;;;;;1.70;1.60;;;13.80;99.90;;;;;;5076597;28;20598;-67
2021/09/28 00:59:56;;;;;;;3.73;1.50;;;13.80;99.90;;;;;;5076812;28;20584;-67
2021/09/28 01:02:23;;;;;;;3.13;1.37;;;13.70;99.90;;;;;;5077102;28;20569;-65
2021/09/28 01:04:49;;;;;;;4.20;1.40;;;13.70;99.90;;;;;;5076301;28;20653;-65
2021/09/28 01:07:16;;;;;;;6.20;1.53;;;13.60;99.90;;;;;;5076505;28;20588;-65
2021/09/28 01:09:42;;;;;;;5.00;1.50;;;13.60;99.90;;;;;;5076619;28;20610;-65
2021/09/28 01:12:10;;;;;;;4.03;1.70;;;13.50;99.90;;;;;;5076150;28;21133;-65
2021/09/28 01:14:38;;;;;;;1.63;1.33;;;13.50;99.90;;;;;;5076459;28;21035;-65
2021/09/28 01:17:15;;;;;;;3.50;1.43;;;13.40;99.90;;;;;;5076262;28;20649;-65
2021/09/28 01:19:43;;;;;;;2.60;1.33;;;13.40;99.90;;;;;;5076435;28;21009;-65
2021/09/28 01:22:12;;;;;;;2.67;1.47;;;13.30;99.90;;;;;;5076061;28;20594;-65
2021/09/28 01:24:40;;;;;;;2.60;1.40;;;13.30;99.90;;;;;;5076285;28;20628;-65
2021/09/28 01:27:09;;;;;;;3.37;1.47;;;13.30;99.90;;;;;;5076106;28;20602;-65
2021/09/28 01:29:35;;;;;;;7.57;1.63;;;13.30;99.90;;;;;;5076136;28;20593;-65
2021/09/28 01:32:03;;;;;;;1.93;1.60;;;13.30;99.90;;;;;;5076093;28;20200;-65
2021/09/28 01:34:30;;;;;;;5.67;1.60;;;13.20;99.90;;;;;;5076137;28;20617;-65
2021/09/28 01:36:56;;;;;;;7.03;1.40;;;13.20;99.90;;;;;;5076257;28;21136;-65
2021/09/28 01:39:23;;;;;;;4.40;1.37;;;13.10;99.90;;;;;;5075830;28;20613;-65
2021/09/28 01:41:50;;;;;;;3.33;1.50;;;13.10;99.90;;;;;;5076008;28;21075;-65
2021/09/28 01:44:18;;;;;;;4.10;1.20;;;13.10;99.90;;;;;;5075519;28;20614;-65
2021/09/28 01:46:47;;;;;;;7.00;1.83;;;13.10;99.90;;;;;;5075304;28;20621;-65
2021/09/28 01:49:16;;;;;;;3.60;1.65;;;13.00;99.90;;;;;;5075724;28;21139;-65
2021/09/28 01:51:43;;;;;;;1.30;1.20;;;13.00;99.90;;;;;;5075740;28;20204;-65
2021/09/28 01:54:10;;;;;;;3.63;1.33;;;13.00;99.90;;;;;;5075704;28;20226;-65
2021/09/28 01:56:37;;;;;;;6.50;1.70;;;12.90;99.90;;;;;;5075872;28;21125;-65
2021/09/28 01:59:05;;;;;;;6.27;1.57;;;12.90;99.90;;;;;;5075777;28;20593;-65
2021/09/28 02:01:31;;;;;;;3.10;1.60;;;12.90;99.90;;;;;;5075393;28;20604;-65
2021/09/28 02:03:58;;;;;;;3.80;1.50;;;12.90;99.90;;;;;;5075473;28;20599;-65
2021/09/28 02:06:25;;;;;;;2.07;1.70;;;12.90;99.90;;;;;;5075467;28;20211;-65
2021/09/28 02:08:51;;;;;;;6.10;1.40;;;12.80;99.90;;;;;;5075503;28;20693;-65
2021/09/28 02:11:18;;;;;;;3.17;1.65;;;12.80;99.90;;;;;;5075658;28;20972;-65
2021/09/28 02:13:45;;;;;;;5.97;1.42;;;12.80;99.90;;;;;;5075180;28;20222;-65
2021/09/28 02:16:12;;;;;;;5.20;1.93;;;12.70;99.90;;;;;;5075244;28;20199;-65
2021/09/28 02:18:38;;;;;;;4.40;1.50;;;12.70;99.90;;;;;;5074981;28;21004;-65
2021/09/28 02:21:06;;;;;;;7.95;2.35;;;12.60;99.90;;;;;;5075430;28;20618;-65
2021/09/28 02:23:32;;;;;;;6.35;1.75;;;12.50;99.90;;;;;;5073667;28;20215;-65
2021/09/28 02:25:58;;;;;;;8.80;2.20;;;12.50;99.90;;;;;;5074432;28;20210;-65
2021/09/28 02:28:25;;;;;;;1.85;1.67;;;12.50;99.90;;;;;;5073593;28;20573;-65
2021/09/28 02:30:53;;;;;;;6.38;2.60;;;12.40;99.90;;;;;;5073512;28;20208;-65
2021/09/28 02:33:19;;;;;;;5.68;2.40;;;12.40;99.90;;;;;;5074854;28;20211;-65
2021/09/28 02:35:45;;;;;;;5.28;2.90;;;12.40;99.90;;;;;;5074850;28;20542;-65
2021/09/28 02:38:12;;;;;;;4.70;1.92;;;12.40;99.90;;;;;;5074645;28;20200;-65
2021/09/28 02:40:38;;;;;;;11.07;3.20;;;12.40;99.90;;;;;;5074683;28;20195;-65
2021/09/28 02:43:05;;;;;;;8.13;3.45;;;12.40;99.90;;;;;;5074894;28;20211;-65
2021/09/28 02:45:31;;;;;;;8.27;4.15;;;12.40;99.90;;;;;;5074805;28;20208;-65
2021/09/28 02:47:58;;;;;;;6.82;4.30;;;12.40;99.90;;;;;;5074188;28;20615;-65
2021/09/28 02:50:24;;;;;;;6.97;3.55;;;12.40;99.90;;;;;;5074527;28;20203;-65
2021/09/28 02:52:50;;;;;;;13.13;5.22;;;12.40;99.90;;;;;;5074740;28;20223;-65
2021/09/28 02:55:19;;;;;;;4.60;3.65;;;12.40;99.90;;;;;;5073126;28;20220;-65
2021/09/28 02:57:45;;;;;;;12.32;4.25;;;12.40;99.90;;;;;;5073452;28;20200;-65
2021/09/28 03:00:12;;;;;;;5.15;4.55;;;12.30;99.90;;;;;;5074067;28;20279;-65
2021/09/28 03:02:38;;;;;;;9.02;4.60;;;12.30;99.90;;;;;;5073958;28;20226;-65
2021/09/28 03:05:05;;;;;;;9.95;4.50;;;12.30;99.90;;;;;;5073887;28;20211;-65
2021/09/28 03:07:31;;;;;;;8.02;5.55;;;12.30;99.90;;;;;;5073440;28;20569;-65
2021/09/28 03:09:57;;;;;;;6.80;5.03;;;12.20;99.90;;;;;;5073874;28;20206;-64
2021/09/28 03:12:23;;;;;;;7.85;5.10;;;12.20;99.90;;;;;;5073612;28;20631;-64
2021/09/28 03:14:51;;;;;;;4.57;3.90;;;12.10;99.90;;;;;;5073765;28;20560;-64
2021/09/28 03:17:17;;;;;;;7.78;5.30;;;12.10;99.90;;;;;;5073504;28;20297;-64
2021/09/28 03:19:43;;;;;;;5.50;5.00;;;12.10;99.90;;;;;;5074123;28;20230;-64
2021/09/28 03:22:10;;;;;;;6.78;5.07;;;12.00;99.90;;;;;;5074478;28;20261;-64
2021/09/28 03:24:36;;;;;;;5.63;4.47;;;12.00;99.90;;;;;;5074466;28;20206;-64
2021/09/28 03:27:03;;;;;;;6.28;5.03;;;12.00;99.90;;;;;;5074040;28;20198;-64
2021/09/28 03:29:29;;;;;;;6.50;4.97;;;12.00;99.90;;;;;;5072966;28;20644;-64
2021/09/28 03:31:56;;;;;;;8.90;5.70;;;12.00;99.90;;;;;;5073722;28;20204;-64
2021/09/28 03:34:22;;;;;;;6.45;5.40;;;12.00;99.90;;;;;;5073646;28;20214;-64
2021/09/28 03:36:48;;;;;;;8.60;6.07;;;12.00;99.90;;;;;;5073776;28;20219;-64
2021/09/28 03:39:15;;;;;;;11.57;6.00;;;12.00;99.90;;;;;;5073453;28;20199;-64
2021/09/28 03:41:41;;;;;;;10.45;5.90;;;12.00;99.90;;;;;;5073635;28;20203;-64
2021/09/28 03:44:07;;;;;;;11.70;5.93;;;12.00;99.90;;;;;;5073379;28;20200;-64
2021/09/28 03:46:34;;;;;;;12.55;7.18;;;12.00;99.90;;;;;;5073710;28;20212;-64
2021/09/28 03:49:00;;;;;;;9.70;7.25;;;11.90;99.90;;;;;;5073259;28;20212;-64
2021/09/28 03:51:26;;;;;;;7.85;6.18;;;11.90;99.90;;;;;;5073460;28;20208;-65
2021/09/28 03:53:53;;;;;;;8.90;5.72;;;11.90;99.90;;;;;;5073515;28;20223;-65
2021/09/28 03:56:20;;;;;;;10.85;5.97;;;11.90;99.90;;;;;;5073318;28;20195;-65
2021/09/28 03:58:46;;;;;;;12.65;8.45;;;11.90;99.90;;;;;;5073575;28;20196;-65
2021/09/28 04:01:13;;;;;;;9.43;6.93;;;11.90;99.90;;;;;;5074042;28;20559;-65
2021/09/28 04:03:42;;;;;;;7.93;6.40;;;11.80;99.90;;;;;;5073514;28;20305;-65
2021/09/28 04:06:10;;;;;;;9.60;7.45;;;11.80;99.90;;;;;;5073698;28;20207;-65
2021/09/28 04:08:36;;;;;;;9.80;6.85;;;11.80;99.90;;;;;;5073535;28;20195;-65
2021/09/28 04:11:02;;;;;;;11.25;7.20;;;11.70;99.90;;;;;;5073765;28;20204;-65
2021/09/28 04:13:29;;;;;;;7.47;6.75;;;11.70;99.90;;;;;;5073297;28;20188;-65
2021/09/28 04:15:55;;;;;;;8.25;7.15;;;11.70;99.90;;;;;;5073354;28;20213;-65
2021/09/28 04:18:22;;;;;;;12.07;7.15;;;11.70;99.90;;;;;;5072640;28;20638;-65
2021/09/28 04:20:49;;;;;;;9.43;7.30;;;11.60;99.90;;;;;;5073163;28;20662;-65
2021/09/28 04:23:15;;;;;;;9.65;6.53;;;11.60;99.90;;;;;;5072924;28;20668;-65
2021/09/28 04:25:42;;;;;;;8.80;6.60;;;11.50;99.90;;;;;;5073364;28;20211;-65
2021/09/28 04:28:09;;;;;;;9.32;6.97;;;11.50;99.90;;;;;;5073820;28;20560;-65
2021/09/28 04:30:36;;;;;;;9.48;6.57;;;11.50;99.90;;;;;;5073272;28;20643;-65
2021/09/28 04:33:02;;;;;;;10.00;7.22;;;11.50;99.90;;;;;;5073893;28;20564;-65
2021/09/28 04:35:28;;;;;;;10.90;6.93;;;11.40;99.90;;;;;;5071549;28;20249;-65
2021/09/28 04:37:55;;;;;;;14.63;7.43;;;11.40;99.90;;;;;;5073021;28;20210;-65
2021/09/28 04:40:21;;;;;;;13.80;7.00;;;11.40;99.90;;;;;;5073164;28;20200;-65
2021/09/28 04:42:48;;;;;;;15.15;6.72;;;11.30;99.90;;;;;;5072842;28;20666;-65
2021/09/28 04:45:14;;;;;;;10.95;6.63;;;11.30;99.90;;;;;;5073068;28;20207;-65
2021/09/28 04:47:41;;;;;;;13.27;7.85;;;11.20;99.90;;;;;;5072852;28;20220;-65
2021/09/28 04:50:08;;;;;;;11.48;7.90;;;11.20;99.90;;;;;;5072701;28;20196;-65
2021/09/28 04:52:36;;;;;;;11.98;8.05;;;11.20;99.90;;;;;;5073080;28;20200;-65
2021/09/28 04:55:04;;;;;;;11.38;8.13;;;11.20;99.90;;;;;;5073213;28;20228;-65
2021/09/28 04:57:31;;;;;;;10.80;7.45;;;11.20;99.90;;;;;;5073143;28;20204;-65
2021/09/28 04:59:58;;;;;;;12.27;7.95;;;11.20;99.90;;;;;;5072537;28;20609;-65
2021/09/28 05:02:25;;;;;;;15.65;8.63;;;11.30;99.90;;;;;;5072595;28;20203;-65
2021/09/28 05:04:51;;;;;;;12.05;8.73;;;11.30;99.90;;;;;;5072768;28;20204;-65
2021/09/28 05:07:17;;;;;;;12.82;7.88;;;11.30;99.90;;;;;;5072762;28;20198;-65
2021/09/28 05:09:44;;;;;;;10.60;7.60;;;11.20;99.90;;;;;;5072691;28;20189;-65
2021/09/28 05:12:10;;;;;;;11.32;8.85;;;11.20;99.90;;;;;;5072441;28;20249;-65
2021/09/28 05:14:36;;;;;;;12.77;8.45;;;11.20;99.90;;;;;;5073000;28;20277;-65
2021/09/28 05:17:03;;;;;;;14.00;9.30;;;11.10;99.90;;;;;;5072463;28;20232;-65
2021/09/28 05:19:29;;;;;;;19.20;10.45;;;11.10;99.90;;;;;;5073092;28;20199;-65
2021/09/28 05:21:57;;;;;;;11.35;9.13;;;11.10;99.90;;;;;;5076476;28;20254;-65
2021/09/28 05:24:23;;;;;;;14.40;11.77;;;11.00;99.90;;;;;;5077393;28;20199;-65
2021/09/28 05:26:50;;;;;;;16.25;9.05;;;11.00;99.90;;;;;;5075973;28;20211;-65
2021/09/28 05:29:16;;;;;;;13.73;9.43;;;11.10;99.90;;;;;;5075843;28;20643;-65
2021/09/28 05:31:42;;;;;;;19.77;10.57;;;11.10;99.90;;;;;;5075801;28;20203;-65
2021/09/28 05:34:09;;;;;;;14.68;8.60;;;11.10;99.90;;;;;;5076145;28;20230;-65
2021/09/28 05:36:35;;;;;;;15.63;9.30;;;11.00;99.90;;;;;;5075720;28;20195;-65
2021/09/28 05:39:02;;;;;;;10.77;8.88;;;11.10;99.90;;;;;;5075716;28;20194;-65
2021/09/28 05:41:28;;;;;;;14.55;9.90;;;11.00;99.90;;;;;;5075724;28;20192;-65
2021/09/28 05:43:54;;;;;;;13.38;9.25;;;11.10;99.90;;;;;;5075669;28;20200;-65
2021/09/28 05:46:20;;;;;;;16.52;9.98;;;11.00;99.90;;;;;;5075393;28;20196;-65
2021/09/28 05:48:47;;;;;;;15.85;10.02;;;11.00;99.90;;;;;;5075823;28;20224;-65
2021/09/28 05:51:18;;;;;;;11.32;9.40;;;11.10;99.90;;;;;;5075617;28;20192;-65
2021/09/28 05:53:45;;;;;;;18.70;9.80;;;11.10;99.90;;;;;;5075718;28;20211;-65
2021/09/28 05:56:13;;;;;;;15.90;8.85;;;11.00;99.90;;;;;;5073842;28;20200;-65
2021/09/28 05:58:41;;;;;;;20.05;8.68;;;11.00;99.90;;;;;;5074019;28;20204;-65
2021/09/28 06:01:07;;;;;;;9.30;8.50;;;11.00;99.90;;;;;;5075676;28;20199;-65
2021/09/28 06:03:33;;;;;;;11.68;9.20;;;11.00;99.90;;;;;;5073913;28;20245;-65
2021/09/28 06:06:01;;;;;;;18.83;9.10;;;11.10;99.90;;;;;;5075537;28;20250;-65
2021/09/28 06:08:28;;;;;;;14.43;9.75;;;11.10;99.90;;;;;;5075362;28;20192;-65
2021/09/28 06:10:54;;;;;;;17.73;10.18;;;11.10;99.90;;;;;;5075153;28;20203;-65
2021/09/28 06:13:21;;;;;;;17.40;9.77;;;11.20;99.90;;;;;;5075409;28;20563;-65
2021/09/28 06:15:47;;;;;;;12.70;8.85;;;11.30;99.90;;;;;;5075340;28;20242;-65
2021/09/28 06:18:13;;;;;;;14.40;9.20;;;11.30;99.90;;;;;;5075205;28;20242;-65
2021/09/28 06:20:40;;;;;;;13.10;9.13;;;11.30;99.90;;;;;;5075345;28;20194;-65
2021/09/28 06:23:06;;;;;;;13.88;9.40;;;11.30;99.90;;;;;;5075114;28;20188;-65
2021/09/28 06:25:34;;;;;;;17.92;9.45;;;11.30;99.90;;;;;;5075330;28;20204;-65
2021/09/28 06:28:00;;;;;;;13.38;10.10;;;11.30;99.90;;;;;;5075351;28;20216;-65
2021/09/28 06:30:27;;;;;;;11.13;9.20;;;11.30;99.90;;;;;;5075200;28;20200;-65
2021/09/28 06:32:53;;;;;;;14.15;9.25;;;11.20;99.90;;;;;;5074613;28;20211;-65
2021/09/28 06:35:20;;;;;;;16.33;10.10;;;11.20;99.90;;;;;;5074761;28;20231;-65
2021/09/28 06:37:46;;;;;;;14.98;9.50;;;11.40;99.90;;;;;;5075398;28;20211;-65
2021/09/28 06:40:13;;;;;;;16.05;9.50;;;11.50;99.90;;;;;;5075004;28;20188;-65
2021/09/28 06:42:39;;;;;;;13.73;8.57;;;11.50;99.90;;;;;;5074812;28;20215;-65
2021/09/28 06:45:06;;;;;;;11.20;8.95;;;11.60;99.90;;;;;;5074829;28;20551;-65
2021/09/28 06:47:32;;;;;;;12.23;7.93;;;11.60;99.90;;;;;;5074973;28;20235;-66
2021/09/28 06:49:59;;;;;;;14.63;9.80;;;11.70;99.90;;;;;;5074844;28;20204;-66
2021/09/28 06:52:25;;;;;;;13.70;9.45;;;11.80;99.90;;;;;;5073605;28;20200;-65
2021/09/28 06:54:51;;;;;;;10.80;8.98;;;11.90;99.90;;;;;;5073417;28;20220;-65
2021/09/28 06:57:18;;;;;;;11.25;8.98;;;11.80;99.90;;;;;;5074401;28;20204;-65
2021/09/28 06:59:44;;;;;;;12.98;8.30;;;11.80;99.90;;;;;;5074727;28;20648;-65
2021/09/28 07:02:10;;;;;;;19.45;9.05;;;11.90;99.90;;;;;;5074449;28;20195;-65
2021/09/28 07:04:37;;;;;;;10.35;8.18;;;12.00;99.90;;;;;;5073029;28;20212;-65
2021/09/28 07:07:03;;;;;;;10.10;9.05;;;12.10;99.90;;;;;;5074350;28;20253;-66
2021/09/28 07:09:31;;;;;;;12.80;10.50;;;12.10;99.90;;;;;;5074559;28;20566;-65
2021/09/28 07:11:58;;;;;;;10.10;9.02;;;12.10;99.90;;;;;;5074742;28;20204;-65
2021/09/28 07:14:24;;;;;;;10.55;9.05;;;12.30;99.90;;;;;;5074016;28;20239;-64
2021/09/28 07:16:50;;;;;;;16.73;8.85;;;12.40;99.90;;;;;;5073849;28;20679;-64
2021/09/28 07:19:16;;;;;;;12.32;8.73;;;12.40;99.90;;;;;;5074067;28;20191;-65
2021/09/28 07:21:45;;;;;;;10.38;9.38;;;12.30;99.90;;;;;;5074009;28;20713;-64
2021/09/28 07:24:13;;;;;;;13.00;8.60;;;12.50;99.90;;;;;;5073908;28;20192;-64
2021/09/28 07:26:39;;;;;;;14.15;9.15;;;12.60;99.90;;;;;;5073878;28;20195;-64
2021/09/28 07:29:06;;;;;;;11.80;8.82;;;12.60;99.90;;;;;;5073853;28;20257;-64
2021/09/28 07:31:32;;;;;;;11.55;8.68;;;12.60;99.90;;;;;;5073872;28;20640;-64
2021/09/28 07:33:59;;;;;;;11.07;8.60;;;12.60;99.90;;;;;;5072578;28;20215;-65
2021/09/28 07:36:25;;;;;;;12.57;8.63;;;12.90;99.90;;;;;;5073816;28;20665;-65
2021/09/28 07:38:51;;;;;;;9.87;7.97;;;13.10;99.90;;;;;;5073940;28;20196;-65
2021/09/28 07:41:18;;;;;;;9.80;8.45;;;13.00;99.90;;;;;;5074206;28;20618;-64
2021/09/28 07:43:45;;;;;;;12.40;9.43;;;13.10;99.90;;;;;;5073452;28;20254;-64
2021/09/28 07:46:11;;;;;;;12.38;7.80;;;13.40;99.90;;;;;;5073717;28;20718;-65
2021/09/28 07:48:38;;;;;;;12.40;7.60;;;13.50;99.90;;;;;;5072020;28;20588;-65
2021/09/28 07:51:04;;;;;;;11.40;7.80;;;13.70;99.90;;;;;;5073114;28;21319;-65
2021/09/28 07:53:31;;;;;;;13.07;7.20;;;13.90;99.90;;;;;;5072418;28;20576;-65
2021/09/28 07:55:57;;;;;;;12.47;8.40;;;13.90;99.90;;;;;;5073707;28;20654;-65
2021/09/28 07:58:23;;;;;;;15.77;7.50;;;14.20;99.90;;;;;;5073490;28;21134;-65
2021/09/28 08:00:50;;;;;;;12.43;7.20;;;14.40;99.90;;;;;;5073346;28;20638;-65
2021/09/28 08:03:16;;;;;;;18.47;7.63;;;14.60;99.90;;;;;;5073287;28;20615;-65
2021/09/28 08:05:43;;;;;;;10.60;6.90;;;14.70;99.90;;;;;;5073495;28;20637;-64
2021/09/28 08:08:09;;;;;;;10.60;6.90;;;14.30;99.90;;;;;;5073171;28;20621;-65
2021/09/28 08:10:36;;;;;;;10.60;6.33;;;14.40;99.90;;;;;;5072995;28;20629;-64
2021/09/28 08:13:04;;;;;;;9.83;6.67;;;14.60;99.90;;;;;;5072700;28;20622;-64
2021/09/28 08:15:35;;;;;;;10.00;5.50;;;14.90;99.90;;;;;;5062296;28;20674;-64
2021/09/28 08:18:02;;;;;;;7.53;5.30;;;15.30;99.90;;;;;;5055686;28;20658;-64
2021/09/28 08:20:29;;;;;;;7.50;6.70;;;15.40;99.90;;;;;;5073073;28;20979;-65
2021/09/28 08:22:57;;;;;;;10.77;4.67;;;15.20;99.90;;;;;;5073049;28;20652;-64
2021/09/28 08:25:47;;;;;;;9.03;4.80;;;15.20;99.90;;;;;;5072796;28;20626;-65
2021/09/28 08:31:04;;;;;;;11.27;4.90;;;15.60;99.90;;;;;;5072802;28;21179;-65
2021/09/28 08:33:32;;;;;;;22.93;5.20;;;15.60;99.90;;;;;;5072554;28;21188;-65
2021/09/28 08:35:59;;;;;;;6.30;4.70;;;15.80;99.90;;;;;;5072623;28;20650;-65
2021/09/28 08:38:29;;;;;;;9.07;4.07;;;16.10;99.90;;;;;;5065538;28;20619;-66
2021/09/28 08:40:59;;;;;;;7.30;4.40;;;15.80;99.90;;;;;;5065235;28;20679;-65
2021/09/28 08:43:26;;;;;;;9.13;4.30;;;15.70;99.90;;;;;;5060185;28;20618;-69
2021/09/28 08:45:53;;;;;;;9.87;3.70;;;15.90;99.90;;;;;;5072851;28;20630;-65
2021/09/28 08:48:19;;;;;;;4.17;3.77;;;15.80;99.90;;;;;;5073009;28;20642;-66
2021/09/28 08:50:50;;;;;;;7.40;4.17;;;15.80;99.90;;;;;;5072445;28;20634;-65
2021/09/28 08:53:18;;;;;;;6.53;3.70;;;15.50;99.90;;;;;;5072435;28;20622;-65
2021/09/28 08:55:45;;;;;;;8.60;4.10;;;15.50;99.90;;;;;;5074961;28;20640;-66
2021/09/28 08:58:20;;;;;;;8.10;3.53;;;15.50;99.90;;;;;;5076216;28;21217;-66
2021/09/28 09:00:48;;;;;;;6.07;4.53;;;15.90;99.90;;;;;;5076313;28;20593;-66
2021/09/28 09:03:32;;;;;;;4.80;3.63;;;16.00;99.90;;;;;;5075601;28;20629;-66
2021/09/28 09:06:00;;;;;;;5.37;4.20;;;15.60;99.90;;;;;;5076386;28;20617;-65
2021/09/28 09:08:35;;;;;;;5.53;3.60;;;15.90;99.90;;;;;;5076725;28;20628;-65
2021/09/28 09:11:05;;;;;;;5.77;3.20;;;16.10;99.90;;;;;;5076309;28;20621;-66
2021/09/28 09:13:43;;;;;;;3.43;2.90;;;16.10;99.90;;;;;;5076853;28;20538;-65
2021/09/28 09:16:14;;;;;;;5.47;3.10;;;16.30;99.90;;;;;;5076332;28;20598;-65
2021/09/28 09:18:43;;;;;;;4.20;3.23;;;16.60;99.90;;;;;;5074860;28;20645;-65
2021/09/28 09:21:10;;;;;;;4.20;3.03;;;16.50;99.90;;;;;;5076234;28;20602;-64
2021/09/28 09:23:38;;;;;;;6.70;3.33;;;16.30;99.90;;;;;;5076406;28;20597;-65
2021/09/28 09:26:15;;;;;;;11.33;3.93;;;16.40;99.90;;;;;;5076334;28;20614;-65
2021/09/28 09:28:46;;;;;;;4.33;3.43;;;16.20;99.90;;;;;;5076450;28;20569;-64
2021/09/28 09:31:24;;;;;;;5.00;3.13;;;16.10;99.90;;;;;;5076171;28;20964;-65
2021/09/28 09:33:54;;;;;;;4.57;2.93;;;16.10;99.90;;;;;;5075651;28;20975;-65
2021/09/28 09:36:22;;;;;;;5.40;3.60;;;16.30;99.90;;;;;;5075789;28;20681;-66
2021/09/28 09:38:55;;;;;;;7.67;2.17;;;16.60;99.90;;;;;;5075783;28;20618;-65
2021/09/28 09:41:32;;;;;;;5.40;2.53;;;16.80;99.90;;;;;;5074506;28;20675;-65
2021/09/28 09:44:07;;;;;;;4.10;2.20;;;17.10;99.90;;;;;;5074545;28;21167;-65
2021/09/28 09:46:51;;;;;;;5.87;2.70;;;16.90;99.90;;;;;;5076151;28;20636;-65
2021/09/28 09:49:23;;;;;;;6.40;3.80;;;17.30;99.90;;;;;;5075536;28;20625;-65
2021/09/28 09:51:52;;;;;;;3.90;2.47;;;17.50;99.90;;;;;;5075927;28;20689;-65
2021/09/28 09:54:40;;;;;;;4.10;1.83;;;17.30;99.90;;;;;;5075788;28;20951;-65
2021/09/28 09:57:09;;;;;;;9.60;2.23;;;17.30;99.90;;;;;;5075715;28;20675;-65
2021/09/28 09:59:36;;;;;;;5.33;2.03;;;17.40;99.90;;;;;;5075862;28;20610;-65
2021/09/28 10:02:04;;;;;;;6.33;2.77;;;17.30;99.90;;;;;;5075758;28;20687;-65
2021/09/28 10:04:31;;;;;;;3.63;2.20;;;17.50;99.90;;;;;;5075760;28;20587;-65
2021/09/28 10:07:02;;;;;;;6.03;2.30;;;17.60;90.30;;;;;;5074567;28;20694;-65
2021/09/28 10:09:30;;;;;;;4.50;2.50;;;17.70;99.90;;;;;;5075595;28;20640;-65
2021/09/28 10:12:01;;;;;;;6.57;2.40;;;18.00;99.90;;;;;;5075784;28;20590;-65
2021/09/28 10:14:45;;;;;;;3.53;2.13;;;17.70;93.70;;;;;;5075572;28;20621;-65
2021/09/28 10:17:21;;;;;;;4.80;2.60;;;17.70;99.90;;;;;;5075298;28;20630;-65
2021/09/28 10:19:53;;;;;;;5.53;2.53;;;18.20;32.70;;;;;;5075479;28;20700;-65
2021/09/28 10:22:55;;;;;;;4.17;2.60;;;18.00;44.60;;;;;;5075328;28;20554;-65
2021/09/28 10:25:35;;;;;;;8.87;3.80;;;17.90;62.70;;;;;;5075869;28;20661;-65
2021/09/28 10:28:04;;;;;;;6.73;2.57;;;17.70;61.90;;;;;;5075467;28;20553;-65
2021/09/28 10:30:34;;;;;;;5.50;2.40;;;17.80;78.10;;;;;;5074141;28;20618;-65
2021/09/28 10:33:02;;;;;;;4.30;2.20;;;17.60;83.10;;;;;;5074967;28;20610;-65
2021/09/28 10:35:33;;;;;;;5.50;4.00;;;17.70;87.70;;;;;;5074946;28;20594;-66
2021/09/28 10:38:06;;;;;;;4.37;2.60;;;18.10;96.30;;;;;;5075358;28;20578;-66
2021/09/28 10:40:33;;;;;;;3.20;2.77;;;18.20;74.60;;;;;;5074856;28;20618;-66
2021/09/28 10:43:07;;;;;;;4.70;2.80;;;18.00;90.50;;;;;;5075077;28;20622;-66
2021/09/28 10:45:36;;;;;;;6.10;2.77;;;18.00;99.90;;;;;;5074911;28;20578;-67
2021/09/28 10:48:29;;;;;;;12.73;2.70;;;18.00;98.00;;;;;;5074970;28;20657;-67
2021/09/28 10:51:10;;;;;;;3.60;2.40;;;18.20;90.20;;;;;;5074861;28;20558;-67
2021/09/28 10:53:38;;;;;;;8.23;2.60;;;18.20;70.90;;;;;;5074915;28;20621;-67
2021/09/28 10:56:14;;;;;;;11.13;2.90;;;18.10;55.00;;;;;;5074786;28;21303;-67
2021/09/28 10:58:54;;;;;;;10.50;3.20;;;17.90;99.90;;;;;;5074798;28;20589;-71
2021/09/28 11:01:25;;;;;;;5.07;2.30;;;18.30;73.30;;;;;;5074547;28;20555;-67
2021/09/28 11:03:56;;;;;;;4.90;2.30;;;18.60;61.80;;;;;;5074732;28;20625;-67
2021/09/28 11:06:41;;;;;;;4.40;2.10;;;18.70;41.20;;;;;;5074560;28;20554;-67
2021/09/28 11:09:08;;;;;;;8.77;2.73;;;18.90;3.30;;;;;;5074673;28;20648;-67
2021/09/28 11:11:35;;;;;;;3.20;2.27;;;18.80;1.00;;;;;;5074735;28;20940;-67
2021/09/28 11:14:06;;;;;;;3.37;2.00;;;19.30;1.00;;;;;;5074052;28;20971;-65
2021/09/28 11:17:00;;;;;;;7.80;3.53;;;19.30;1.00;;;;;;5073913;28;20649;-66
2021/09/28 11:19:38;;;;;;;5.53;2.00;;;20.20;1.00;;;;;;5074239;28;20610;-66
2021/09/28 11:22:07;;;;;;;5.50;2.43;;;20.10;1.00;;;;;;5074242;28;20590;-66
2021/09/28 11:24:34;;;;;;;7.33;2.43;;;20.00;1.00;;;;;;5074125;28;20622;-66
2021/09/28 11:27:09;;;;;;;3.27;1.87;;;20.20;1.00;;;;;;5073972;28;20618;-66
2021/09/28 11:29:37;;;;;;;4.10;1.73;;;20.50;1.00;;;;;;5073939;28;20618;-67
2021/09/28 11:32:05;;;;;;;9.03;1.87;;;20.40;1.00;;;;;;5073792;28;20606;-66
2021/09/28 11:34:39;;;;;;;1.60;1.40;;;21.10;1.00;;;;;;5072607;28;20597;-66
2021/09/28 11:37:06;;;;;;;5.97;2.17;;;21.10;1.00;;;;;;5072654;28;20642;-67
2021/09/28 11:39:36;;;;;;;2.63;1.60;;;20.40;1.00;;;;;;5073544;28;20614;-66
2021/09/28 11:42:04;;;;;;;4.70;2.47;;;20.60;1.00;;;;;;5074175;28;20582;-66
2021/09/28 11:44:37;;;;;;;2.83;1.90;;;20.70;1.00;;;;;;5073964;28;20620;-66
2021/09/28 11:47:11;;;;;;;5.77;2.20;;;20.30;1.00;;;;;;5073785;28;21200;-66
2021/09/28 11:49:48;;;;;;;5.37;1.80;;;20.70;1.00;;;;;;5074061;28;21162;-66
2021/09/28 11:52:15;;;;;;;4.10;1.83;;;21.40;1.00;;;;;;5073796;28;20621;-66
2021/09/28 11:54:46;;;;;;;7.23;1.97;;;21.70;1.00;;;;;;5073680;28;20636;-66
2021/09/28 11:57:14;;;;;;;3.33;1.63;;;21.30;1.00;;;;;;5073474;28;20653;-66
2021/09/28 11:59:41;;;;;;;7.00;2.00;;;21.40;1.00;;;;;;5073845;28;20598;-66
2021/09/28 12:02:08;;;;;;;3.20;1.73;;;22.20;1.00;;;;;;5073768;28;20988;-66
2021/09/28 12:10:16;;;;;;;4.97;1.53;;;22.70;1.00;;;;;;5073396;28;20602;-66
2021/09/28 12:12:43;;;;;;;3.20;1.70;;;22.70;1.00;;;;;;5073691;28;20618;-66
2021/09/28 12:15:11;;;;;;;12.00;1.77;;;22.40;1.00;;;;;;5073544;28;20663;-66
2021/09/28 12:17:43;;;;;;;3.90;1.60;;;21.60;1.00;;;;;;5073597;28;20649;-66
2021/09/28 12:20:16;;;;;;;4.03;1.67;;;20.70;1.00;;;;;;5073255;28;21076;-67
2021/09/28 12:22:47;;;;;;;1.53;1.30;;;20.30;1.00;;;;;;5072916;28;20211;-66
2021/09/28 12:25:29;;;;;;;1.57;1.23;;;19.80;1.00;;;;;;5073605;28;20621;-66
2021/09/28 12:28:03;;;;;;;2.40;1.93;;;19.90;1.00;;;;;;5073386;28;20630;-66
2021/09/28 12:30:33;;;;;;;4.33;1.77;;;20.80;1.00;;;;;;5075996;28;20616;-66
2021/09/28 12:33:00;;;;;;;3.90;2.27;;;21.50;1.00;;;;;;5077535;28;20621;-66
2021/09/28 12:35:35;;;;;;;5.43;1.80;;;21.80;1.00;;;;;;5077380;28;20749;-66
2021/09/28 12:38:06;;;;;;;3.47;1.60;;;22.30;1.00;;;;;;5077549;28;21140;-66
2021/09/28 12:40:38;;;;;;;1.73;1.47;;;21.50;1.00;;;;;;5077652;28;20582;-66
2021/09/28 12:43:08;;;;;;;2.87;1.53;;;21.50;1.00;;;;;;5077151;28;20620;-66
2021/09/28 12:45:54;;;;;;;1.80;1.70;;;21.40;1.00;;;;;;5077452;28;20592;-66
2021/09/28 12:48:31;;;;;;;3.83;1.50;;;21.50;1.00;;;;;;5076972;28;20642;-66
2021/09/28 12:51:08;;;;;;;2.30;1.20;;;21.70;1.00;;;;;;5077495;28;20723;-66
2021/09/28 12:53:35;;;;;;;2.13;1.30;;;22.10;1.00;;;;;;5076648;28;20621;-66
2021/09/28 12:56:05;;;;;;;6.33;2.73;;;21.70;1.00;;;;;;5075505;28;21208;-66
2021/09/28 12:58:32;;;;;;;3.30;1.57;;;22.00;1.00;;;;;;5077131;28;20673;-66
2021/09/28 13:00:59;;;;;;;4.00;1.73;;;21.80;1.00;;;;;;5075390;28;21187;-66